sensor_id;sensor_type;location;lat;lon;timestamp;pressure;altitude;pressure_sealevel;temperature;humidity
75942;BME280;64622;46.220;19.878;2023-04-19T00:01:13;100340.53;;;10.72;78.55
75942;BME280;64622;46.220;19.878;2023-04-19T00:03:40;100336.97;;;10.63;79.10
75942;BME280;64622;46.220;19.878;2023-04-19T00:06:07;100339.16;;;10.60;79.12
75942;BME280;64622;46.220;19.878;2023-04-19T00:08:35;100324.03;;;10.51;79.72
75942;BME280;64622;46.220;19.878;2023-04-19T00:11:02;100328.00;;;10.47;80.08
75942;BME280;64622;46.220;19.878;2023-04-19T00:13:28;100319.63;;;10.42;80.35
75942;BME280;64622;46.220;19.878;2023-04-19T00:15:55;100316.94;;;10.42;80.12
75942;BME280;64622;46.220;19.878;2023-04-19T00:18:22;100328.84;;;10.47;80.03
75942;BME280;64622;46.220;19.878;2023-04-19T00:20:49;100319.31;;;10.45;80.05
75942;BME280;64622;46.220;19.878;2023-04-19T00:23:16;100315.59;;;10.38;80.47
75942;BME280;64622;46.220;19.878;2023-04-19T00:25:47;100315.91;;;10.35;80.62
75942;BME280;64622;46.220;19.878;2023-04-19T00:28:14;100316.25;;;10.40;79.90
75942;BME280;64622;46.220;19.878;2023-04-19T00:30:42;100310.03;;;10.31;80.17
75942;BME280;64622;46.220;19.878;2023-04-19T00:33:10;100313.38;;;10.33;79.93
75942;BME280;64622;46.220;19.878;2023-04-19T00:35:39;100312.00;;;10.29;80.53
75942;BME280;64622;46.220;19.878;2023-04-19T00:38:07;100300.78;;;10.26;79.87
75942;BME280;64622;46.220;19.878;2023-04-19T00:40:35;100303.97;;;10.29;80.16
75942;BME280;64622;46.220;19.878;2023-04-19T00:43:04;100311.34;;;10.27;80.65
75942;BME280;64622;46.220;19.878;2023-04-19T00:45:31;100304.59;;;10.23;80.80
75942;BME280;64622;46.220;19.878;2023-04-19T00:48:00;100310.47;;;10.27;80.98
75942;BME280;64622;46.220;19.878;2023-04-19T00:50:27;100298.97;;;10.26;81.11
75942;BME280;64622;46.220;19.878;2023-04-19T00:52:56;100298.09;;;10.26;80.55
75942;BME280;64622;46.220;19.878;2023-04-19T00:55:24;100292.75;;;10.26;80.87
75942;BME280;64622;46.220;19.878;2023-04-19T00:57:52;100290.59;;;10.29;80.45
75942;BME280;64622;46.220;19.878;2023-04-19T01:00:19;100291.59;;;10.28;80.92
75942;BME280;64622;46.220;19.878;2023-04-19T01:02:46;100282.94;;;10.34;80.22
75942;BME280;64622;46.220;19.878;2023-04-19T01:05:13;100286.16;;;10.38;80.46
75942;BME280;64622;46.220;19.878;2023-04-19T01:07:40;100291.66;;;10.36;81.21
75942;BME280;64622;46.220;19.878;2023-04-19T01:10:06;100279.91;;;10.29;81.71
75942;BME280;64622;46.220;19.878;2023-04-19T01:12:33;100279.06;;;10.29;81.60
75942;BME280;64622;46.220;19.878;2023-04-19T01:15:01;100281.91;;;10.27;81.82
75942;BME280;64622;46.220;19.878;2023-04-19T01:17:30;100280.09;;;10.28;81.52
75942;BME280;64622;46.220;19.878;2023-04-19T01:20:02;100275.41;;;10.30;81.49
75942;BME280;64622;46.220;19.878;2023-04-19T01:22:30;100273.94;;;10.35;81.61
75942;BME280;64622;46.220;19.878;2023-04-19T01:24:57;100282.13;;;10.34;81.70
75942;BME280;64622;46.220;19.878;2023-04-19T01:27:23;100268.03;;;10.32;81.79
75942;BME280;64622;46.220;19.878;2023-04-19T01:29:51;100271.72;;;10.31;81.80
75942;BME280;64622;46.220;19.878;2023-04-19T01:32:17;100269.06;;;10.31;82.07
75942;BME280;64622;46.220;19.878;2023-04-19T01:34:44;100250.31;;;10.31;81.29
75942;BME280;64622;46.220;19.878;2023-04-19T01:37:11;100262.75;;;10.40;80.68
75942;BME280;64622;46.220;19.878;2023-04-19T01:39:37;100252.69;;;10.34;81.30
75942;BME280;64622;46.220;19.878;2023-04-19T01:42:04;100249.16;;;10.33;81.13
75942;BME280;64622;46.220;19.878;2023-04-19T01:44:31;100255.22;;;10.35;81.83
75942;BME280;64622;46.220;19.878;2023-04-19T01:46:59;100248.34;;;10.33;81.24
75942;BME280;64622;46.220;19.878;2023-04-19T01:49:25;100262.09;;;10.38;81.53
75942;BME280;64622;46.220;19.878;2023-04-19T01:51:52;100257.03;;;10.35;82.03
75942;BME280;64622;46.220;19.878;2023-04-19T01:54:20;100262.03;;;10.30;82.11
75942;BME280;64622;46.220;19.878;2023-04-19T01:56:49;100253.00;;;10.31;82.28
75942;BME280;64622;46.220;19.878;2023-04-19T01:59:15;100251.31;;;10.30;82.46
75942;BME280;64622;46.220;19.878;2023-04-19T02:01:42;100252.62;;;10.26;82.21
75942;BME280;64622;46.220;19.878;2023-04-19T02:04:09;100259.50;;;10.28;82.33
75942;BME280;64622;46.220;19.878;2023-04-19T02:06:35;100252.19;;;10.30;81.94
75942;BME280;64622;46.220;19.878;2023-04-19T02:09:03;100248.81;;;10.28;81.46
75942;BME280;64622;46.220;19.878;2023-04-19T02:11:30;100245.13;;;10.29;81.81
75942;BME280;64622;46.220;19.878;2023-04-19T02:13:57;100250.03;;;10.34;82.19
75942;BME280;64622;46.220;19.878;2023-04-19T02:16:23;100249.69;;;10.37;81.99
75942;BME280;64622;46.220;19.878;2023-04-19T02:18:50;100246.50;;;10.33;81.73
75942;BME280;64622;46.220;19.878;2023-04-19T02:21:17;100247.88;;;10.37;81.73
75942;BME280;64622;46.220;19.878;2023-04-19T02:23:44;100254.22;;;10.36;81.61
75942;BME280;64622;46.220;19.878;2023-04-19T02:26:11;100256.56;;;10.39;81.49
75942;BME280;64622;46.220;19.878;2023-04-19T02:28:38;100240.31;;;10.33;81.73
75942;BME280;64622;46.220;19.878;2023-04-19T02:31:05;100237.31;;;10.36;81.57
75942;BME280;64622;46.220;19.878;2023-04-19T02:33:34;100233.44;;;10.30;81.45
75942;BME280;64622;46.220;19.878;2023-04-19T02:36:01;100241.84;;;10.35;81.92
75942;BME280;64622;46.220;19.878;2023-04-19T02:38:28;100233.59;;;10.29;81.91
75942;BME280;64622;46.220;19.878;2023-04-19T02:40:54;100236.78;;;10.32;81.96
75942;BME280;64622;46.220;19.878;2023-04-19T02:43:22;100242.44;;;10.29;82.24
75942;BME280;64622;46.220;19.878;2023-04-19T02:45:48;100236.78;;;10.24;82.14
75942;BME280;64622;46.220;19.878;2023-04-19T02:48:14;100227.91;;;10.24;82.34
75942;BME280;64622;46.220;19.878;2023-04-19T02:50:42;100228.03;;;10.22;82.38
75942;BME280;64622;46.220;19.878;2023-04-19T02:53:08;100240.25;;;10.25;82.40
75942;BME280;64622;46.220;19.878;2023-04-19T02:55:35;100232.38;;;10.23;82.51
75942;BME280;64622;46.220;19.878;2023-04-19T02:58:03;100221.50;;;10.17;83.13
75942;BME280;64622;46.220;19.878;2023-04-19T03:00:30;100226.50;;;10.12;83.83
75942;BME280;64622;46.220;19.878;2023-04-19T03:02:57;100215.78;;;10.12;83.69
75942;BME280;64622;46.220;19.878;2023-04-19T03:05:24;100219.06;;;10.06;84.01
75942;BME280;64622;46.220;19.878;2023-04-19T03:07:51;100224.59;;;10.04;84.06
75942;BME280;64622;46.220;19.878;2023-04-19T03:10:17;100224.03;;;10.01;84.70
75942;BME280;64622;46.220;19.878;2023-04-19T03:12:44;100215.25;;;9.91;84.84
75942;BME280;64622;46.220;19.878;2023-04-19T03:15:11;100220.94;;;9.88;85.15
75942;BME280;64622;46.220;19.878;2023-04-19T03:17:37;100218.28;;;9.88;85.30
75942;BME280;64622;46.220;19.878;2023-04-19T03:20:04;100212.41;;;9.84;85.51
75942;BME280;64622;46.220;19.878;2023-04-19T03:22:34;100215.53;;;9.80;85.93
75942;BME280;64622;46.220;19.878;2023-04-19T03:25:02;100207.97;;;9.75;86.01
75942;BME280;64622;46.220;19.878;2023-04-19T03:27:29;100210.31;;;9.78;86.11
75942;BME280;64622;46.220;19.878;2023-04-19T03:29:56;100215.84;;;9.77;86.02
75942;BME280;64622;46.220;19.878;2023-04-19T03:32:23;100212.25;;;9.68;86.64
75942;BME280;64622;46.220;19.878;2023-04-19T03:34:51;100214.72;;;9.62;86.83
75942;BME280;64622;46.220;19.878;2023-04-19T03:37:18;100207.88;;;9.59;87.29
75942;BME280;64622;46.220;19.878;2023-04-19T03:39:45;100212.06;;;9.62;87.18
75942;BME280;64622;46.220;19.878;2023-04-19T03:42:12;100201.16;;;9.55;87.71
75942;BME280;64622;46.220;19.878;2023-04-19T03:44:39;100195.03;;;9.45;87.95
75942;BME280;64622;46.220;19.878;2023-04-19T03:47:06;100204.22;;;9.43;88.31
75942;BME280;64622;46.220;19.878;2023-04-19T03:49:33;100217.56;;;9.43;88.64
75942;BME280;64622;46.220;19.878;2023-04-19T03:52:00;100197.97;;;9.34;89.11
75942;BME280;64622;46.220;19.878;2023-04-19T03:54:27;100197.25;;;9.32;88.83
75942;BME280;64622;46.220;19.878;2023-04-19T03:56:54;100209.94;;;9.30;89.34
75942;BME280;64622;46.220;19.878;2023-04-19T03:59:20;100210.31;;;9.35;89.46
75942;BME280;64622;46.220;19.878;2023-04-19T04:01:47;100209.94;;;9.30;89.39
75942;BME280;64622;46.220;19.878;2023-04-19T04:04:14;100208.25;;;9.29;89.92
75942;BME280;64622;46.220;19.878;2023-04-19T04:06:40;100217.81;;;9.32;89.87
75942;BME280;64622;46.220;19.878;2023-04-19T04:09:07;100222.00;;;9.34;90.15
75942;BME280;64622;46.220;19.878;2023-04-19T04:11:34;100208.09;;;9.31;90.14
75942;BME280;64622;46.220;19.878;2023-04-19T04:14:03;100217.19;;;9.38;89.98
75942;BME280;64622;46.220;19.878;2023-04-19T04:16:30;100220.00;;;9.36;90.16
75942;BME280;64622;46.220;19.878;2023-04-19T04:18:57;100203.88;;;9.28;90.20
75942;BME280;64622;46.220;19.878;2023-04-19T04:21:24;100215.81;;;9.34;90.71
75942;BME280;64622;46.220;19.878;2023-04-19T04:23:52;100212.59;;;9.30;90.44
75942;BME280;64622;46.220;19.878;2023-04-19T04:26:19;100210.75;;;9.31;90.40
75942;BME280;64622;46.220;19.878;2023-04-19T04:28:47;100219.00;;;9.37;91.02
75942;BME280;64622;46.220;19.878;2023-04-19T04:31:15;100218.00;;;9.38;91.35
75942;BME280;64622;46.220;19.878;2023-04-19T04:33:43;100211.47;;;9.33;91.26
75942;BME280;64622;46.220;19.878;2023-04-19T04:36:12;100212.00;;;9.36;91.10
75942;BME280;64622;46.220;19.878;2023-04-19T04:38:38;100215.03;;;9.41;90.83
75942;BME280;64622;46.220;19.878;2023-04-19T04:41:06;100216.09;;;9.48;90.84
75942;BME280;64622;46.220;19.878;2023-04-19T04:43:34;100212.44;;;9.49;90.38
75942;BME280;64622;46.220;19.878;2023-04-19T04:46:01;100228.53;;;9.57;90.51
75942;BME280;64622;46.220;19.878;2023-04-19T04:48:29;100217.19;;;9.55;90.30
75942;BME280;64622;46.220;19.878;2023-04-19T04:50:57;100217.69;;;9.59;90.55
75942;BME280;64622;46.220;19.878;2023-04-19T04:53:27;100214.66;;;9.54;90.97
75942;BME280;64622;46.220;19.878;2023-04-19T04:55:54;100219.50;;;9.58;91.16
75942;BME280;64622;46.220;19.878;2023-04-19T04:58:20;100213.78;;;9.53;91.22
75942;BME280;64622;46.220;19.878;2023-04-19T05:00:47;100221.03;;;9.61;91.04
75942;BME280;64622;46.220;19.878;2023-04-19T05:03:15;100224.56;;;9.61;91.51
75942;BME280;64622;46.220;19.878;2023-04-19T05:05:42;100218.56;;;9.59;91.76
75942;BME280;64622;46.220;19.878;2023-04-19T05:08:09;100223.41;;;9.64;91.33
75942;BME280;64622;46.220;19.878;2023-04-19T05:10:36;100224.31;;;9.72;91.49
75942;BME280;64622;46.220;19.878;2023-04-19T05:13:02;100222.00;;;9.77;91.49
75942;BME280;64622;46.220;19.878;2023-04-19T05:15:29;100225.06;;;9.82;91.37
75942;BME280;64622;46.220;19.878;2023-04-19T05:17:59;100214.91;;;9.86;91.06
75942;BME280;64622;46.220;19.878;2023-04-19T05:20:25;100216.97;;;9.92;90.75
75942;BME280;64622;46.220;19.878;2023-04-19T05:22:59;100215.62;;;9.96;90.66
75942;BME280;64622;46.220;19.878;2023-04-19T05:25:27;100206.78;;;9.95;90.01
75942;BME280;64622;46.220;19.878;2023-04-19T05:27:54;100200.97;;;10.00;90.33
75942;BME280;64622;46.220;19.878;2023-04-19T05:30:21;100199.81;;;10.02;90.28
75942;BME280;64622;46.220;19.878;2023-04-19T05:32:48;100211.41;;;10.11;90.28
75942;BME280;64622;46.220;19.878;2023-04-19T05:35:14;100206.56;;;10.06;90.36
75942;BME280;64622;46.220;19.878;2023-04-19T05:37:42;100210.97;;;10.15;90.36
75942;BME280;64622;46.220;19.878;2023-04-19T05:40:09;100202.72;;;10.09;90.56
75942;BME280;64622;46.220;19.878;2023-04-19T05:42:37;100203.09;;;10.14;90.49
75942;BME280;64622;46.220;19.878;2023-04-19T05:45:04;100197.97;;;10.20;90.63
75942;BME280;64622;46.220;19.878;2023-04-19T05:47:33;100201.81;;;10.26;90.50
75942;BME280;64622;46.220;19.878;2023-04-19T05:50:02;100210.56;;;10.36;90.52
75942;BME280;64622;46.220;19.878;2023-04-19T05:52:30;100201.22;;;10.40;89.83
75942;BME280;64622;46.220;19.878;2023-04-19T05:54:57;100205.25;;;10.44;89.66
75942;BME280;64622;46.220;19.878;2023-04-19T05:57:24;100200.63;;;10.54;89.48
75942;BME280;64622;46.220;19.878;2023-04-19T05:59:51;100204.31;;;10.61;88.98
75942;BME280;64622;46.220;19.878;2023-04-19T06:02:18;100209.38;;;10.64;88.98
75942;BME280;64622;46.220;19.878;2023-04-19T06:04:45;100204.22;;;10.70;88.92
75942;BME280;64622;46.220;19.878;2023-04-19T06:07:13;100209.22;;;10.73;88.51
75942;BME280;64622;46.220;19.878;2023-04-19T06:09:39;100209.22;;;10.73;88.14
75942;BME280;64622;46.220;19.878;2023-04-19T06:12:06;100208.41;;;10.81;88.08
75942;BME280;64622;46.220;19.878;2023-04-19T06:14:33;100202.41;;;10.87;88.14
75942;BME280;64622;46.220;19.878;2023-04-19T06:17:00;100208.28;;;10.98;87.50
75942;BME280;64622;46.220;19.878;2023-04-19T06:19:27;100215.69;;;11.12;86.76
75942;BME280;64622;46.220;19.878;2023-04-19T06:21:53;100213.22;;;11.19;86.56
75942;BME280;64622;46.220;19.878;2023-04-19T06:24:20;100216.22;;;11.32;85.97
75942;BME280;64622;46.220;19.878;2023-04-19T06:26:47;100211.22;;;11.37;85.41
75942;BME280;64622;46.220;19.878;2023-04-19T06:29:14;100204.22;;;11.44;85.77
75942;BME280;64622;46.220;19.878;2023-04-19T06:31:41;100216.28;;;11.48;85.55
75942;BME280;64622;46.220;19.878;2023-04-19T06:34:08;100207.56;;;11.54;85.14
75942;BME280;64622;46.220;19.878;2023-04-19T06:36:36;100207.56;;;11.54;84.81
75942;BME280;64622;46.220;19.878;2023-04-19T06:39:03;100213.97;;;11.69;84.78
75942;BME280;64622;46.220;19.878;2023-04-19T06:41:30;100211.78;;;11.72;84.84
75942;BME280;64622;46.220;19.878;2023-04-19T06:43:56;100220.31;;;11.84;83.55
75942;BME280;64622;46.220;19.878;2023-04-19T06:46:23;100222.84;;;11.85;82.83
75942;BME280;64622;46.220;19.878;2023-04-19T06:48:51;100214.09;;;11.99;82.07
75942;BME280;64622;46.220;19.878;2023-04-19T06:51:17;100221.62;;;12.20;81.36
75942;BME280;64622;46.220;19.878;2023-04-19T06:53:44;100224.34;;;12.58;80.70
75942;BME280;64622;46.220;19.878;2023-04-19T06:56:11;100216.13;;;13.06;79.54
75942;BME280;64622;46.220;19.878;2023-04-19T06:58:39;100213.81;;;13.48;77.66
75942;BME280;64622;46.220;19.878;2023-04-19T07:01:05;100219.78;;;13.81;75.81
75942;BME280;64622;46.220;19.878;2023-04-19T07:03:33;100219.87;;;14.24;75.71
75942;BME280;64622;46.220;19.878;2023-04-19T07:05:59;100215.19;;;14.41;73.41
75942;BME280;64622;46.220;19.878;2023-04-19T07:08:28;100220.91;;;14.38;72.93
75942;BME280;64622;46.220;19.878;2023-04-19T07:10:55;100223.59;;;14.96;71.81
75942;BME280;64622;46.220;19.878;2023-04-19T07:13:22;100217.09;;;14.90;67.93
75942;BME280;64622;46.220;19.878;2023-04-19T07:15:49;100219.22;;;15.45;68.06
75942;BME280;64622;46.220;19.878;2023-04-19T07:18:16;100227.81;;;15.97;64.82
75942;BME280;64622;46.220;19.878;2023-04-19T07:20:43;100223.81;;;15.93;62.62
75942;BME280;64622;46.220;19.878;2023-04-19T07:23:10;100212.66;;;16.23;61.35
75942;BME280;64622;46.220;19.878;2023-04-19T07:25:37;100217.28;;;16.57;59.72
75942;BME280;64622;46.220;19.878;2023-04-19T07:28:03;100218.56;;;17.08;59.61
75942;BME280;64622;46.220;19.878;2023-04-19T07:30:30;100224.81;;;16.68;59.46
75942;BME280;64622;46.220;19.878;2023-04-19T07:32:57;100231.06;;;16.68;59.13
75942;BME280;64622;46.220;19.878;2023-04-19T07:35:24;100224.63;;;17.16;57.39
75942;BME280;64622;46.220;19.878;2023-04-19T07:37:50;100221.81;;;16.90;57.10
75942;BME280;64622;46.220;19.878;2023-04-19T07:40:17;100226.97;;;16.45;58.15
75942;BME280;64622;46.220;19.878;2023-04-19T07:42:44;100226.03;;;16.10;60.29
75942;BME280;64622;46.220;19.878;2023-04-19T07:45:11;100222.44;;;16.52;58.31
75942;BME280;64622;46.220;19.878;2023-04-19T07:47:38;100227.63;;;16.26;58.18
75942;BME280;64622;46.220;19.878;2023-04-19T07:50:05;100227.66;;;16.53;58.54
75942;BME280;64622;46.220;19.878;2023-04-19T07:52:33;100225.69;;;16.41;58.28
75942;BME280;64622;46.220;19.878;2023-04-19T07:54:59;100233.78;;;16.41;58.76
75942;BME280;64622;46.220;19.878;2023-04-19T07:57:26;100225.47;;;16.70;56.96
75942;BME280;64622;46.220;19.878;2023-04-19T07:59:53;100224.38;;;17.05;54.61
75942;BME280;64622;46.220;19.878;2023-04-19T08:02:27;100230.78;;;16.57;55.54
75942;BME280;64622;46.220;19.878;2023-04-19T08:04:53;100230.91;;;16.83;57.00
75942;BME280;64622;46.220;19.878;2023-04-19T08:07:20;100233.25;;;16.52;57.33
75942;BME280;64622;46.220;19.878;2023-04-19T08:09:49;100234.69;;;16.27;58.31
75942;BME280;64622;46.220;19.878;2023-04-19T08:12:15;100235.19;;;16.09;57.63
75942;BME280;64622;46.220;19.878;2023-04-19T08:14:43;100234.38;;;15.88;57.12
75942;BME280;64622;46.220;19.878;2023-04-19T08:17:10;100245.09;;;15.81;58.06
75942;BME280;64622;46.220;19.878;2023-04-19T08:19:37;100231.88;;;15.44;58.58
75942;BME280;64622;46.220;19.878;2023-04-19T08:22:03;100237.44;;;15.43;58.99
75942;BME280;64622;46.220;19.878;2023-04-19T08:24:31;100241.09;;;15.56;59.39
75942;BME280;64622;46.220;19.878;2023-04-19T08:26:57;100232.94;;;15.29;58.18
75942;BME280;64622;46.220;19.878;2023-04-19T08:29:24;100236.41;;;15.44;57.82
75942;BME280;64622;46.220;19.878;2023-04-19T08:31:51;100239.84;;;15.52;59.14
75942;BME280;64622;46.220;19.878;2023-04-19T08:34:18;100242.28;;;15.68;59.01
75942;BME280;64622;46.220;19.878;2023-04-19T08:36:45;100238.88;;;15.81;60.17
75942;BME280;64622;46.220;19.878;2023-04-19T08:39:11;100236.84;;;16.10;57.81
75942;BME280;64622;46.220;19.878;2023-04-19T08:41:39;100227.72;;;16.39;56.71
75942;BME280;64622;46.220;19.878;2023-04-19T08:44:05;100242.94;;;16.19;56.24
75942;BME280;64622;46.220;19.878;2023-04-19T08:46:33;100233.72;;;16.07;56.51
75942;BME280;64622;46.220;19.878;2023-04-19T08:48:59;100226.87;;;15.83;56.99
75942;BME280;64622;46.220;19.878;2023-04-19T08:51:28;100233.28;;;16.03;57.06
75942;BME280;64622;46.220;19.878;2023-04-19T08:53:55;100239.12;;;16.34;57.35
75942;BME280;64622;46.220;19.878;2023-04-19T08:56:24;100226.97;;;16.24;56.68
75942;BME280;64622;46.220;19.878;2023-04-19T08:58:51;100222.38;;;16.45;57.18
75942;BME280;64622;46.220;19.878;2023-04-19T09:01:17;100230.72;;;16.23;57.11
75942;BME280;64622;46.220;19.878;2023-04-19T09:03:45;100228.75;;;16.38;56.83
75942;BME280;64622;46.220;19.878;2023-04-19T09:06:11;100231.03;;;16.62;56.51
75942;BME280;64622;46.220;19.878;2023-04-19T09:08:39;100227.69;;;16.60;57.08
75942;BME280;64622;46.220;19.878;2023-04-19T09:11:06;100227.16;;;16.43;57.17
75942;BME280;64622;46.220;19.878;2023-04-19T09:13:33;100218.66;;;16.46;57.37
75942;BME280;64622;46.220;19.878;2023-04-19T09:16:05;100232.25;;;16.59;57.09
75942;BME280;64622;46.220;19.878;2023-04-19T09:18:53;100229.53;;;16.59;56.48
75942;BME280;64622;46.220;19.878;2023-04-19T09:21:31;100221.69;;;17.11;54.86
75942;BME280;64622;46.220;19.878;2023-04-19T09:23:58;100218.22;;;17.30;53.92
75942;BME280;64622;46.220;19.878;2023-04-19T09:26:26;100219.22;;;17.10;54.54
75942;BME280;64622;46.220;19.878;2023-04-19T09:28:56;100217.56;;;16.68;54.29
75942;BME280;64622;46.220;19.878;2023-04-19T09:31:24;100219.94;;;16.91;56.03
75942;BME280;64622;46.220;19.878;2023-04-19T09:33:53;100223.69;;;16.96;55.73
75942;BME280;64622;46.220;19.878;2023-04-19T09:36:28;100215.84;;;16.61;54.63
75942;BME280;64622;46.220;19.878;2023-04-19T09:38:55;100214.66;;;17.23;54.76
75942;BME280;64622;46.220;19.878;2023-04-19T09:41:23;100208.62;;;16.74;48.71
75942;BME280;64622;46.220;19.878;2023-04-19T09:43:50;100210.03;;;17.04;49.72
75942;BME280;64622;46.220;19.878;2023-04-19T09:46:35;100213.37;;;17.13;49.53
75942;BME280;64622;46.220;19.878;2023-04-19T09:49:18;100218.72;;;17.47;50.17
75942;BME280;64622;46.220;19.878;2023-04-19T09:51:46;100221.81;;;17.44;51.43
75942;BME280;64622;46.220;19.878;2023-04-19T09:54:15;100211.84;;;17.44;50.16
75942;BME280;64622;46.220;19.878;2023-04-19T09:56:42;100207.50;;;17.69;49.02
75942;BME280;64622;46.220;19.878;2023-04-19T09:59:09;100215.22;;;17.79;47.27
75942;BME280;64622;46.220;19.878;2023-04-19T10:01:47;100205.44;;;17.97;46.04
75942;BME280;64622;46.220;19.878;2023-04-19T10:04:18;100208.97;;;17.98;46.43
75942;BME280;64622;46.220;19.878;2023-04-19T10:06:49;100206.63;;;18.73;46.44
75942;BME280;64622;46.220;19.878;2023-04-19T10:09:18;100206.13;;;19.46;43.64
75942;BME280;64622;46.220;19.878;2023-04-19T10:11:52;100200.72;;;19.39;43.59
75942;BME280;64622;46.220;19.878;2023-04-19T10:14:23;100199.34;;;20.17;41.67
75942;BME280;64622;46.220;19.878;2023-04-19T10:16:50;100199.50;;;19.66;43.00
75942;BME280;64622;46.220;19.878;2023-04-19T10:19:19;100200.41;;;20.34;41.28
75942;BME280;64622;46.220;19.878;2023-04-19T10:21:48;100192.69;;;21.09;40.92
75942;BME280;64622;46.220;19.878;2023-04-19T10:24:17;100198.12;;;21.57;39.56
75942;BME280;64622;46.220;19.878;2023-04-19T10:27:10;100193.06;;;21.13;39.90
75942;BME280;64622;46.220;19.878;2023-04-19T10:32:27;100181.12;;;20.96;39.38
75942;BME280;64622;46.220;19.878;2023-04-19T10:34:54;100178.97;;;21.34;39.89
75942;BME280;64622;46.220;19.878;2023-04-19T10:37:25;100171.81;;;21.92;39.18
75942;BME280;64622;46.220;19.878;2023-04-19T10:39:52;100158.16;;;21.80;37.49
75942;BME280;64622;46.220;19.878;2023-04-19T10:42:18;100176.97;;;21.41;36.92
75942;BME280;64622;46.220;19.878;2023-04-19T10:47:50;100166.72;;;22.18;35.13
75942;BME280;64622;46.220;19.878;2023-04-19T10:50:18;100164.44;;;21.92;35.60
75942;BME280;64622;46.220;19.878;2023-04-19T10:52:44;100162.78;;;21.21;37.03
75942;BME280;64622;46.220;19.878;2023-04-19T10:55:14;100153.31;;;20.40;38.39
75942;BME280;64622;46.220;19.878;2023-04-19T10:58:04;100158.78;;;22.05;35.96
75942;BME280;64622;46.220;19.878;2023-04-19T11:00:31;100153.91;;;21.55;36.24
75942;BME280;64622;46.220;19.878;2023-04-19T11:02:59;100149.75;;;21.11;37.18
75942;BME280;64622;46.220;19.878;2023-04-19T11:05:28;100153.38;;;21.64;36.71
75942;BME280;64622;46.220;19.878;2023-04-19T11:07:55;100151.44;;;21.65;37.29
75942;BME280;64622;46.220;19.878;2023-04-19T11:10:29;100150.00;;;22.26;35.79
75942;BME280;64622;46.220;19.878;2023-04-19T11:12:57;100147.62;;;22.30;36.32
75942;BME280;64622;46.220;19.878;2023-04-19T11:15:24;100135.34;;;21.22;37.70
75942;BME280;64622;46.220;19.878;2023-04-19T11:17:50;100146.38;;;20.26;38.45
75942;BME280;64622;46.220;19.878;2023-04-19T11:20:24;100152.19;;;20.47;37.88
75942;BME280;64622;46.220;19.878;2023-04-19T11:22:51;100139.50;;;20.95;37.25
75942;BME280;64622;46.220;19.878;2023-04-19T11:25:20;100148.69;;;22.06;36.10
75942;BME280;64622;46.220;19.878;2023-04-19T11:27:51;100150.16;;;22.54;34.17
75942;BME280;64622;46.220;19.878;2023-04-19T11:30:36;100137.66;;;22.01;33.85
75942;BME280;64622;46.220;19.878;2023-04-19T11:33:03;100154.12;;;21.83;34.20
75942;BME280;64622;46.220;19.878;2023-04-19T11:35:30;100139.91;;;22.38;34.07
75942;BME280;64622;46.220;19.878;2023-04-19T11:37:58;100140.47;;;22.86;32.47
75942;BME280;64622;46.220;19.878;2023-04-19T11:40:25;100139.63;;;22.86;33.08
75942;BME280;64622;46.220;19.878;2023-04-19T11:42:57;100134.66;;;21.68;34.96
75942;BME280;64622;46.220;19.878;2023-04-19T11:45:35;100130.66;;;21.29;35.56
75942;BME280;64622;46.220;19.878;2023-04-19T11:48:07;100133.56;;;20.98;35.87
75942;BME280;64622;46.220;19.878;2023-04-19T11:50:40;100137.88;;;21.35;35.14
75942;BME280;64622;46.220;19.878;2023-04-19T11:53:17;100130.06;;;21.68;35.32
75942;BME280;64622;46.220;19.878;2023-04-19T11:55:45;100129.59;;;21.30;35.77
75942;BME280;64622;46.220;19.878;2023-04-19T11:58:30;100141.28;;;21.19;35.87
75942;BME280;64622;46.220;19.878;2023-04-19T12:01:12;100121.59;;;21.17;35.83
75942;BME280;64622;46.220;19.878;2023-04-19T12:03:49;100130.97;;;18.58;40.41
75942;BME280;64622;46.220;19.878;2023-04-19T12:06:21;100138.28;;;19.39;39.70
75942;BME280;64622;46.220;19.878;2023-04-19T12:08:50;100122.25;;;18.94;41.68
75942;BME280;64622;46.220;19.878;2023-04-19T12:11:20;100130.34;;;18.50;43.99
75942;BME280;64622;46.220;19.878;2023-04-19T12:14:09;100129.00;;;17.76;45.84
75942;BME280;64622;46.220;19.878;2023-04-19T12:16:37;100142.47;;;17.30;55.40
75942;BME280;64622;46.220;19.878;2023-04-19T12:19:14;100146.69;;;16.11;62.57
75942;BME280;64622;46.220;19.878;2023-04-19T12:21:43;100141.87;;;15.31;66.93
75942;BME280;64622;46.220;19.878;2023-04-19T12:24:13;100128.78;;;14.71;72.48
75942;BME280;64622;46.220;19.878;2023-04-19T12:26:55;100117.25;;;14.77;71.65
75942;BME280;64622;46.220;19.878;2023-04-19T12:29:22;100129.03;;;15.12;68.31
75942;BME280;64622;46.220;19.878;2023-04-19T12:31:49;100132.41;;;15.35;63.58
75942;BME280;64622;46.220;19.878;2023-04-19T12:34:16;100122.06;;;15.38;61.60
75942;BME280;64622;46.220;19.878;2023-04-19T12:36:43;100127.25;;;15.61;63.38
75942;BME280;64622;46.220;19.878;2023-04-19T12:39:10;100127.25;;;15.61;63.83
75942;BME280;64622;46.220;19.878;2023-04-19T12:41:37;100128.69;;;15.36;67.18
75942;BME280;64622;46.220;19.878;2023-04-19T12:44:04;100130.75;;;15.34;68.46
75942;BME280;64622;46.220;19.878;2023-04-19T12:46:31;100124.03;;;15.30;65.78
75942;BME280;64622;46.220;19.878;2023-04-19T12:48:57;100118.63;;;15.30;65.92
75942;BME280;64622;46.220;19.878;2023-04-19T12:51:24;100120.94;;;15.33;65.43
75942;BME280;64622;46.220;19.878;2023-04-19T12:53:51;100133.22;;;15.35;65.38